sensor_id;sensor_type;location;lat;lon;timestamp;P1;durP1;ratioP1;P2;durP2;ratioP2
8978;SDS011;4524;51.364;5.448;2022-09-17T00:01:18;10.57;;;3.00;;
8978;SDS011;4524;51.364;5.448;2022-09-17T00:03:49;9.97;;;2.73;;
8978;SDS011;4524;51.364;5.448;2022-09-17T00:06:19;10.23;;;2.80;;
8978;SDS011;4524;51.364;5.448;2022-09-17T00:08:47;9.73;;;3.13;;
8978;SDS011;4524;51.364;5.448;2022-09-17T00:11:16;5.93;;;2.40;;
8978;SDS011;4524;51.364;5.448;2022-09-17T00:13:46;7.17;;;2.40;;
8978;SDS011;4524;51.364;5.448;2022-09-17T00:16:20;8.30;;;2.80;;
8978;SDS011;4524;51.364;5.448;2022-09-17T00:18:52;8.43;;;2.70;;
8978;SDS011;4524;51.364;5.448;2022-09-17T00:21:21;9.67;;;2.90;;
8978;SDS011;4524;51.364;5.448;2022-09-17T00:23:52;8.90;;;2.97;;
8978;SDS011;4524;51.364;5.448;2022-09-17T00:26:21;11.73;;;2.70;;
8978;SDS011;4524;51.364;5.448;2022-09-17T00:28:49;7.73;;;2.60;;
8978;SDS011;4524;51.364;5.448;2022-09-17T00:31:18;8.07;;;2.23;;
8978;SDS011;4524;51.364;5.448;2022-09-17T00:33:47;7.30;;;2.40;;
8978;SDS011;4524;51.364;5.448;2022-09-17T00:36:16;10.00;;;2.30;;
8978;SDS011;4524;51.364;5.448;2022-09-17T00:38:47;7.40;;;2.90;;
8978;SDS011;4524;51.364;5.448;2022-09-17T00:41:16;10.97;;;2.30;;
8978;SDS011;4524;51.364;5.448;2022-09-17T00:43:45;10.33;;;2.63;;
8978;SDS011;4524;51.364;5.448;2022-09-17T00:46:23;8.80;;;2.30;;
8978;SDS011;4524;51.364;5.448;2022-09-17T00:48:56;7.97;;;2.40;;
8978;SDS011;4524;51.364;5.448;2022-09-17T00:51:28;7.77;;;2.47;;
8978;SDS011;4524;51.364;5.448;2022-09-17T00:54:00;6.07;;;2.47;;
8978;SDS011;4524;51.364;5.448;2022-09-17T00:56:30;8.43;;;3.00;;
8978;SDS011;4524;51.364;5.448;2022-09-17T00:59:00;8.03;;;2.30;;
8978;SDS011;4524;51.364;5.448;2022-09-17T01:01:28;9.10;;;2.70;;
8978;SDS011;4524;51.364;5.448;2022-09-17T01:03:56;9.80;;;2.43;;
8978;SDS011;4524;51.364;5.448;2022-09-17T01:06:28;7.67;;;2.57;;
8978;SDS011;4524;51.364;5.448;2022-09-17T01:09:05;7.03;;;2.57;;
8978;SDS011;4524;51.364;5.448;2022-09-17T01:11:53;6.87;;;2.07;;
8978;SDS011;4524;51.364;5.448;2022-09-17T01:14:43;6.43;;;2.13;;
8978;SDS011;4524;51.364;5.448;2022-09-17T01:17:22;8.07;;;2.20;;
8978;SDS011;4524;51.364;5.448;2022-09-17T01:23:04;7.07;;;1.97;;
8978;SDS011;4524;51.364;5.448;2022-09-17T01:25:51;6.30;;;2.40;;
8978;SDS011;4524;51.364;5.448;2022-09-17T01:28:33;7.50;;;2.30;;
8978;SDS011;4524;51.364;5.448;2022-09-17T01:31:19;6.97;;;2.00;;
8978;SDS011;4524;51.364;5.448;2022-09-17T01:34:04;6.40;;;1.80;;
8978;SDS011;4524;51.364;5.448;2022-09-17T01:36:44;10.17;;;2.00;;
8978;SDS011;4524;51.364;5.448;2022-09-17T01:39:26;6.43;;;1.93;;
8978;SDS011;4524;51.364;5.448;2022-09-17T01:42:00;11.27;;;2.20;;
8978;SDS011;4524;51.364;5.448;2022-09-17T01:44:36;10.03;;;2.00;;
8978;SDS011;4524;51.364;5.448;2022-09-17T01:47:13;5.90;;;1.93;;
8978;SDS011;4524;51.364;5.448;2022-09-17T01:49:46;9.90;;;2.60;;
8978;SDS011;4524;51.364;5.448;2022-09-17T01:52:17;5.77;;;1.80;;
8978;SDS011;4524;51.364;5.448;2022-09-17T01:54:46;8.43;;;2.00;;
8978;SDS011;4524;51.364;5.448;2022-09-17T01:57:18;9.97;;;2.37;;
8978;SDS011;4524;51.364;5.448;2022-09-17T01:59:53;7.07;;;2.57;;
8978;SDS011;4524;51.364;5.448;2022-09-17T02:02:28;9.17;;;2.00;;
8978;SDS011;4524;51.364;5.448;2022-09-17T02:04:59;8.57;;;2.20;;
8978;SDS011;4524;51.364;5.448;2022-09-17T02:07:31;9.60;;;2.10;;
8978;SDS011;4524;51.364;5.448;2022-09-17T02:10:06;7.33;;;2.30;;
8978;SDS011;4524;51.364;5.448;2022-09-17T02:12:38;6.10;;;1.90;;
8978;SDS011;4524;51.364;5.448;2022-09-17T02:15:10;9.43;;;2.03;;
8978;SDS011;4524;51.364;5.448;2022-09-17T02:17:46;9.30;;;2.20;;
8978;SDS011;4524;51.364;5.448;2022-09-17T02:20:16;9.00;;;2.00;;
8978;SDS011;4524;51.364;5.448;2022-09-17T02:22:49;8.07;;;1.80;;
8978;SDS011;4524;51.364;5.448;2022-09-17T02:25:23;6.50;;;1.73;;
8978;SDS011;4524;51.364;5.448;2022-09-17T02:27:56;7.00;;;2.30;;
8978;SDS011;4524;51.364;5.448;2022-09-17T02:30:29;8.17;;;2.03;;
8978;SDS011;4524;51.364;5.448;2022-09-17T02:32:58;11.17;;;2.10;;
8978;SDS011;4524;51.364;5.448;2022-09-17T02:35:29;8.57;;;1.93;;
8978;SDS011;4524;51.364;5.448;2022-09-17T02:37:57;6.43;;;1.60;;
8978;SDS011;4524;51.364;5.448;2022-09-17T02:40:26;10.63;;;2.20;;
8978;SDS011;4524;51.364;5.448;2022-09-17T02:43:01;8.37;;;2.10;;
8978;SDS011;4524;51.364;5.448;2022-09-17T02:45:39;9.13;;;2.20;;
8978;SDS011;4524;51.364;5.448;2022-09-17T02:48:26;7.40;;;2.00;;
8978;SDS011;4524;51.364;5.448;2022-09-17T02:51:17;10.03;;;2.17;;
8978;SDS011;4524;51.364;5.448;2022-09-17T02:53:55;12.50;;;2.00;;
8978;SDS011;4524;51.364;5.448;2022-09-17T02:56:34;7.80;;;1.90;;
8978;SDS011;4524;51.364;5.448;2022-09-17T02:59:13;8.57;;;1.70;;
8978;SDS011;4524;51.364;5.448;2022-09-17T03:01:47;8.97;;;1.90;;
8978;SDS011;4524;51.364;5.448;2022-09-17T03:04:19;4.30;;;1.70;;
8978;SDS011;4524;51.364;5.448;2022-09-17T03:06:51;7.17;;;1.87;;
8978;SDS011;4524;51.364;5.448;2022-09-17T03:09:19;6.53;;;1.70;;
8978;SDS011;4524;51.364;5.448;2022-09-17T03:11:47;6.50;;;1.60;;
8978;SDS011;4524;51.364;5.448;2022-09-17T03:14:15;5.60;;;1.63;;
8978;SDS011;4524;51.364;5.448;2022-09-17T03:16:45;6.60;;;1.57;;
8978;SDS011;4524;51.364;5.448;2022-09-17T03:19:14;8.17;;;1.93;;
8978;SDS011;4524;51.364;5.448;2022-09-17T03:21:43;8.53;;;1.80;;
8978;SDS011;4524;51.364;5.448;2022-09-17T03:24:11;6.33;;;1.80;;
8978;SDS011;4524;51.364;5.448;2022-09-17T03:26:38;8.60;;;1.70;;
8978;SDS011;4524;51.364;5.448;2022-09-17T03:29:06;10.87;;;2.00;;
8978;SDS011;4524;51.364;5.448;2022-09-17T03:31:34;7.13;;;1.87;;
8978;SDS011;4524;51.364;5.448;2022-09-17T03:34:02;6.50;;;1.90;;
8978;SDS011;4524;51.364;5.448;2022-09-17T03:36:30;6.77;;;1.50;;
8978;SDS011;4524;51.364;5.448;2022-09-17T03:38:59;9.13;;;1.70;;
8978;SDS011;4524;51.364;5.448;2022-09-17T03:41:27;5.00;;;1.80;;
8978;SDS011;4524;51.364;5.448;2022-09-17T03:43:55;12.47;;;2.00;;
8978;SDS011;4524;51.364;5.448;2022-09-17T03:46:23;4.03;;;1.40;;
8978;SDS011;4524;51.364;5.448;2022-09-17T03:48:51;4.37;;;1.70;;
8978;SDS011;4524;51.364;5.448;2022-09-17T03:51:19;8.03;;;2.00;;
8978;SDS011;4524;51.364;5.448;2022-09-17T03:53:47;7.60;;;2.20;;
8978;SDS011;4524;51.364;5.448;2022-09-17T03:56:16;7.63;;;1.67;;
8978;SDS011;4524;51.364;5.448;2022-09-17T03:58:44;9.47;;;1.80;;
8978;SDS011;4524;51.364;5.448;2022-09-17T04:01:12;10.27;;;1.80;;
8978;SDS011;4524;51.364;5.448;2022-09-17T04:03:40;6.17;;;1.80;;
8978;SDS011;4524;51.364;5.448;2022-09-17T04:06:08;5.93;;;1.73;;
8978;SDS011;4524;51.364;5.448;2022-09-17T04:08:36;8.43;;;1.90;;
8978;SDS011;4524;51.364;5.448;2022-09-17T04:11:04;7.87;;;1.77;;
8978;SDS011;4524;51.364;5.448;2022-09-17T04:13:34;6.40;;;2.00;;
8978;SDS011;4524;51.364;5.448;2022-09-17T04:16:02;4.77;;;1.80;;
8978;SDS011;4524;51.364;5.448;2022-09-17T04:18:30;5.67;;;2.03;;
8978;SDS011;4524;51.364;5.448;2022-09-17T04:20:58;7.13;;;1.80;;
8978;SDS011;4524;51.364;5.448;2022-09-17T04:23:26;7.10;;;1.67;;
8978;SDS011;4524;51.364;5.448;2022-09-17T04:25:54;7.17;;;1.67;;
8978;SDS011;4524;51.364;5.448;2022-09-17T04:28:22;6.90;;;1.87;;
8978;SDS011;4524;51.364;5.448;2022-09-17T04:30:51;6.67;;;1.57;;
8978;SDS011;4524;51.364;5.448;2022-09-17T04:33:19;4.93;;;1.83;;
8978;SDS011;4524;51.364;5.448;2022-09-17T04:35:47;7.97;;;1.60;;
8978;SDS011;4524;51.364;5.448;2022-09-17T04:38:15;4.87;;;1.53;;
8978;SDS011;4524;51.364;5.448;2022-09-17T04:40:45;8.00;;;1.90;;
8978;SDS011;4524;51.364;5.448;2022-09-17T04:43:13;5.73;;;1.60;;
8978;SDS011;4524;51.364;5.448;2022-09-17T04:45:43;6.00;;;1.50;;
8978;SDS011;4524;51.364;5.448;2022-09-17T04:48:13;9.83;;;1.73;;
8978;SDS011;4524;51.364;5.448;2022-09-17T04:50:41;6.23;;;1.90;;
8978;SDS011;4524;51.364;5.448;2022-09-17T04:53:09;5.27;;;1.60;;
8978;SDS011;4524;51.364;5.448;2022-09-17T04:55:37;6.53;;;1.80;;
8978;SDS011;4524;51.364;5.448;2022-09-17T04:58:05;9.07;;;2.07;;
8978;SDS011;4524;51.364;5.448;2022-09-17T05:00:33;4.97;;;1.60;;
8978;SDS011;4524;51.364;5.448;2022-09-17T05:03:01;5.07;;;1.60;;
8978;SDS011;4524;51.364;5.448;2022-09-17T05:05:31;6.23;;;1.50;;
8978;SDS011;4524;51.364;5.448;2022-09-17T05:07:59;6.13;;;1.70;;
8978;SDS011;4524;51.364;5.448;2022-09-17T05:10:27;5.57;;;1.70;;
8978;SDS011;4524;51.364;5.448;2022-09-17T05:12:55;6.40;;;1.90;;
8978;SDS011;4524;51.364;5.448;2022-09-17T05:15:24;5.23;;;1.60;;
8978;SDS011;4524;51.364;5.448;2022-09-17T05:17:52;5.23;;;1.73;;
8978;SDS011;4524;51.364;5.448;2022-09-17T05:20:20;6.67;;;1.67;;
8978;SDS011;4524;51.364;5.448;2022-09-17T05:22:50;7.07;;;1.80;;
8978;SDS011;4524;51.364;5.448;2022-09-17T05:25:19;7.03;;;2.00;;
8978;SDS011;4524;51.364;5.448;2022-09-17T05:27:50;6.90;;;1.97;;
8978;SDS011;4524;51.364;5.448;2022-09-17T05:30:18;5.03;;;1.90;;
8978;SDS011;4524;51.364;5.448;2022-09-17T05:32:47;8.37;;;1.70;;
8978;SDS011;4524;51.364;5.448;2022-09-17T05:35:15;7.63;;;1.90;;
8978;SDS011;4524;51.364;5.448;2022-09-17T05:37:43;6.87;;;1.50;;
8978;SDS011;4524;51.364;5.448;2022-09-17T05:40:12;6.63;;;2.00;;
8978;SDS011;4524;51.364;5.448;2022-09-17T05:42:40;9.17;;;1.90;;
8978;SDS011;4524;51.364;5.448;2022-09-17T05:45:09;5.47;;;2.00;;
8978;SDS011;4524;51.364;5.448;2022-09-17T05:47:37;6.83;;;2.33;;
8978;SDS011;4524;51.364;5.448;2022-09-17T05:50:05;4.53;;;1.63;;
8978;SDS011;4524;51.364;5.448;2022-09-17T05:52:33;6.00;;;1.90;;
8978;SDS011;4524;51.364;5.448;2022-09-17T05:55:01;8.77;;;2.03;;
8978;SDS011;4524;51.364;5.448;2022-09-17T05:57:30;9.77;;;2.10;;
8978;SDS011;4524;51.364;5.448;2022-09-17T05:59:58;8.20;;;1.90;;
8978;SDS011;4524;51.364;5.448;2022-09-17T06:02:26;8.97;;;2.30;;
8978;SDS011;4524;51.364;5.448;2022-09-17T06:04:54;6.47;;;2.13;;
8978;SDS011;4524;51.364;5.448;2022-09-17T06:07:25;10.67;;;2.07;;
8978;SDS011;4524;51.364;5.448;2022-09-17T06:09:54;6.43;;;2.50;;
8978;SDS011;4524;51.364;5.448;2022-09-17T06:12:22;5.77;;;2.20;;
8978;SDS011;4524;51.364;5.448;2022-09-17T06:14:51;13.20;;;2.50;;
8978;SDS011;4524;51.364;5.448;2022-09-17T06:17:19;10.47;;;2.10;;
8978;SDS011;4524;51.364;5.448;2022-09-17T06:19:47;6.63;;;2.37;;
8978;SDS011;4524;51.364;5.448;2022-09-17T06:22:16;7.53;;;2.33;;
8978;SDS011;4524;51.364;5.448;2022-09-17T06:24:45;8.57;;;2.33;;
8978;SDS011;4524;51.364;5.448;2022-09-17T06:27:13;7.43;;;1.93;;
8978;SDS011;4524;51.364;5.448;2022-09-17T06:29:41;9.70;;;2.30;;
8978;SDS011;4524;51.364;5.448;2022-09-17T06:32:10;7.63;;;1.90;;
8978;SDS011;4524;51.364;5.448;2022-09-17T06:34:40;8.80;;;1.90;;
8978;SDS011;4524;51.364;5.448;2022-09-17T06:37:09;7.80;;;1.97;;
8978;SDS011;4524;51.364;5.448;2022-09-17T06:39:36;5.57;;;2.10;;
8978;SDS011;4524;51.364;5.448;2022-09-17T06:42:05;7.23;;;2.20;;
8978;SDS011;4524;51.364;5.448;2022-09-17T06:44:33;9.27;;;2.00;;
8978;SDS011;4524;51.364;5.448;2022-09-17T06:47:01;5.90;;;1.70;;
8978;SDS011;4524;51.364;5.448;2022-09-17T06:49:30;6.03;;;2.10;;
8978;SDS011;4524;51.364;5.448;2022-09-17T06:51:58;8.43;;;1.97;;
8978;SDS011;4524;51.364;5.448;2022-09-17T06:54:26;5.83;;;1.57;;
8978;SDS011;4524;51.364;5.448;2022-09-17T06:56:53;6.37;;;1.97;;
8978;SDS011;4524;51.364;5.448;2022-09-17T06:59:21;7.37;;;2.07;;
8978;SDS011;4524;51.364;5.448;2022-09-17T07:01:49;8.13;;;1.97;;
8978;SDS011;4524;51.364;5.448;2022-09-17T07:04:17;6.87;;;1.93;;
8978;SDS011;4524;51.364;5.448;2022-09-17T07:06:47;7.23;;;1.70;;
8978;SDS011;4524;51.364;5.448;2022-09-17T07:09:14;5.93;;;1.80;;
8978;SDS011;4524;51.364;5.448;2022-09-17T07:11:43;5.00;;;1.80;;
8978;SDS011;4524;51.364;5.448;2022-09-17T07:14:11;8.93;;;2.10;;
8978;SDS011;4524;51.364;5.448;2022-09-17T07:16:39;7.80;;;2.17;;
8978;SDS011;4524;51.364;5.448;2022-09-17T07:19:07;7.43;;;2.20;;
8978;SDS011;4524;51.364;5.448;2022-09-17T07:21:36;6.07;;;2.20;;
8978;SDS011;4524;51.364;5.448;2022-09-17T07:24:05;8.90;;;1.97;;
8978;SDS011;4524;51.364;5.448;2022-09-17T07:26:33;6.13;;;2.20;;
8978;SDS011;4524;51.364;5.448;2022-09-17T07:29:01;10.43;;;2.47;;
8978;SDS011;4524;51.364;5.448;2022-09-17T07:31:29;6.47;;;1.87;;
8978;SDS011;4524;51.364;5.448;2022-09-17T07:33:57;6.53;;;1.97;;
8978;SDS011;4524;51.364;5.448;2022-09-17T07:36:26;11.03;;;2.43;;
8978;SDS011;4524;51.364;5.448;2022-09-17T07:38:54;4.73;;;1.70;;
8978;SDS011;4524;51.364;5.448;2022-09-17T07:41:23;9.07;;;2.20;;
8978;SDS011;4524;51.364;5.448;2022-09-17T07:43:51;6.97;;;1.80;;
8978;SDS011;4524;51.364;5.448;2022-09-17T07:46:20;7.13;;;1.97;;
8978;SDS011;4524;51.364;5.448;2022-09-17T07:48:49;5.20;;;1.73;;
8978;SDS011;4524;51.364;5.448;2022-09-17T07:51:17;6.20;;;1.50;;
8978;SDS011;4524;51.364;5.448;2022-09-17T07:53:49;11.43;;;2.40;;
8978;SDS011;4524;51.364;5.448;2022-09-17T07:56:17;5.77;;;1.63;;
8978;SDS011;4524;51.364;5.448;2022-09-17T07:58:47;8.17;;;1.53;;
8978;SDS011;4524;51.364;5.448;2022-09-17T08:01:15;4.67;;;1.60;;
8978;SDS011;4524;51.364;5.448;2022-09-17T08:03:46;6.90;;;1.87;;
8978;SDS011;4524;51.364;5.448;2022-09-17T08:06:16;4.60;;;1.40;;
8978;SDS011;4524;51.364;5.448;2022-09-17T08:08:45;9.13;;;1.67;;
8978;SDS011;4524;51.364;5.448;2022-09-17T08:11:15;6.90;;;1.80;;
8978;SDS011;4524;51.364;5.448;2022-09-17T08:14:05;4.27;;;1.40;;
8978;SDS011;4524;51.364;5.448;2022-09-17T08:16:33;5.77;;;1.63;;
8978;SDS011;4524;51.364;5.448;2022-09-17T08:19:01;4.57;;;1.50;;
8978;SDS011;4524;51.364;5.448;2022-09-17T08:21:29;4.50;;;1.70;;
8978;SDS011;4524;51.364;5.448;2022-09-17T08:23:57;7.43;;;1.63;;
8978;SDS011;4524;51.364;5.448;2022-09-17T08:26:25;4.43;;;1.23;;
8978;SDS011;4524;51.364;5.448;2022-09-17T08:28:53;4.77;;;1.33;;
8978;SDS011;4524;51.364;5.448;2022-09-17T08:31:24;3.63;;;1.20;;
8978;SDS011;4524;51.364;5.448;2022-09-17T08:33:53;4.77;;;1.10;;
8978;SDS011;4524;51.364;5.448;2022-09-17T08:36:21;3.13;;;1.37;;
8978;SDS011;4524;51.364;5.448;2022-09-17T08:38:51;6.67;;;1.40;;
8978;SDS011;4524;51.364;5.448;2022-09-17T08:41:22;3.67;;;1.30;;
8978;SDS011;4524;51.364;5.448;2022-09-17T08:43:59;4.73;;;1.27;;
8978;SDS011;4524;51.364;5.448;2022-09-17T08:46:36;5.33;;;1.53;;
8978;SDS011;4524;51.364;5.448;2022-09-17T08:49:11;5.50;;;1.50;;
8978;SDS011;4524;51.364;5.448;2022-09-17T08:51:48;4.13;;;1.20;;
8978;SDS011;4524;51.364;5.448;2022-09-17T08:54:26;5.63;;;1.87;;
8978;SDS011;4524;51.364;5.448;2022-09-17T08:57:03;6.90;;;1.30;;
8978;SDS011;4524;51.364;5.448;2022-09-17T08:59:40;3.27;;;1.00;;
8978;SDS011;4524;51.364;5.448;2022-09-17T09:02:19;5.33;;;1.40;;
8978;SDS011;4524;51.364;5.448;2022-09-17T09:04:57;4.07;;;1.27;;
8978;SDS011;4524;51.364;5.448;2022-09-17T09:07:29;3.07;;;1.30;;
8978;SDS011;4524;51.364;5.448;2022-09-17T09:10:04;3.97;;;1.40;;
8978;SDS011;4524;51.364;5.448;2022-09-17T09:12:38;6.47;;;1.33;;
8978;SDS011;4524;51.364;5.448;2022-09-17T09:15:14;4.67;;;1.30;;
8978;SDS011;4524;51.364;5.448;2022-09-17T09:17:51;5.63;;;1.63;;
8978;SDS011;4524;51.364;5.448;2022-09-17T09:20:21;3.93;;;1.00;;
8978;SDS011;4524;51.364;5.448;2022-09-17T09:22:58;3.27;;;1.27;;
8978;SDS011;4524;51.364;5.448;2022-09-17T09:25:35;3.60;;;1.30;;
8978;SDS011;4524;51.364;5.448;2022-09-17T09:28:14;5.07;;;1.50;;
8978;SDS011;4524;51.364;5.448;2022-09-17T09:30:52;4.03;;;1.10;;
8978;SDS011;4524;51.364;5.448;2022-09-17T09:33:34;6.13;;;1.60;;
8978;SDS011;4524;51.364;5.448;2022-09-17T09:36:11;6.63;;;1.70;;
8978;SDS011;4524;51.364;5.448;2022-09-17T09:38:42;4.80;;;1.20;;
8978;SDS011;4524;51.364;5.448;2022-09-17T09:41:14;4.73;;;1.20;;
8978;SDS011;4524;51.364;5.448;2022-09-17T09:43:46;4.90;;;1.23;;
8978;SDS011;4524;51.364;5.448;2022-09-17T09:46:42;10.67;;;1.47;;
8978;SDS011;4524;51.364;5.448;2022-09-17T09:49:27;6.30;;;1.13;;
8978;SDS011;4524;51.364;5.448;2022-09-17T09:52:06;6.43;;;1.50;;
8978;SDS011;4524;51.364;5.448;2022-09-17T09:54:43;4.47;;;1.03;;
8978;SDS011;4524;51.364;5.448;2022-09-17T09:57:21;4.63;;;1.50;;
8978;SDS011;4524;51.364;5.448;2022-09-17T10:02:49;4.47;;;1.40;;
8978;SDS011;4524;51.364;5.448;2022-09-17T10:05:23;5.73;;;1.30;;
8978;SDS011;4524;51.364;5.448;2022-09-17T10:07:51;4.90;;;1.30;;
8978;SDS011;4524;51.364;5.448;2022-09-17T10:10:19;5.80;;;1.50;;
8978;SDS011;4524;51.364;5.448;2022-09-17T10:12:47;4.17;;;1.33;;
8978;SDS011;4524;51.364;5.448;2022-09-17T10:15:22;5.87;;;1.50;;
8978;SDS011;4524;51.364;5.448;2022-09-17T10:20:41;8.30;;;1.47;;
8978;SDS011;4524;51.364;5.448;2022-09-17T10:23:16;4.93;;;0.93;;
8978;SDS011;4524;51.364;5.448;2022-09-17T10:25:44;10.57;;;1.67;;
8978;SDS011;4524;51.364;5.448;2022-09-17T10:31:09;4.37;;;1.60;;
8978;SDS011;4524;51.364;5.448;2022-09-17T10:33:38;7.63;;;1.50;;
8978;SDS011;4524;51.364;5.448;2022-09-17T10:36:21;9.43;;;1.70;;
8978;SDS011;4524;51.364;5.448;2022-09-17T10:39:17;6.00;;;1.47;;
8978;SDS011;4524;51.364;5.448;2022-09-17T10:41:53;7.13;;;1.50;;
8978;SDS011;4524;51.364;5.448;2022-09-17T10:44:22;6.70;;;2.03;;
8978;SDS011;4524;51.364;5.448;2022-09-17T10:46:51;7.40;;;1.90;;
8978;SDS011;4524;51.364;5.448;2022-09-17T10:49:25;10.07;;;1.93;;
8978;SDS011;4524;51.364;5.448;2022-09-17T10:52:07;6.17;;;1.70;;
8978;SDS011;4524;51.364;5.448;2022-09-17T10:57:35;7.03;;;2.00;;
8978;SDS011;4524;51.364;5.448;2022-09-17T11:00:11;5.13;;;1.80;;
8978;SDS011;4524;51.364;5.448;2022-09-17T11:02:59;4.17;;;1.30;;
8978;SDS011;4524;51.364;5.448;2022-09-17T11:05:53;6.80;;;1.60;;
8978;SDS011;4524;51.364;5.448;2022-09-17T11:08:31;6.93;;;1.40;;
8978;SDS011;4524;51.364;5.448;2022-09-17T11:11:08;7.40;;;1.50;;
8978;SDS011;4524;51.364;5.448;2022-09-17T11:13:38;7.70;;;1.30;;
8978;SDS011;4524;51.364;5.448;2022-09-17T11:16:18;3.60;;;1.00;;
8978;SDS011;4524;51.364;5.448;2022-09-17T11:18:57;5.20;;;0.93;;
8978;SDS011;4524;51.364;5.448;2022-09-17T11:21:35;5.57;;;1.20;;
8978;SDS011;4524;51.364;5.448;2022-09-17T11:24:17;2.20;;;1.13;;
8978;SDS011;4524;51.364;5.448;2022-09-17T11:27:04;7.07;;;1.10;;
8978;SDS011;4524;51.364;5.448;2022-09-17T11:29:43;3.30;;;1.10;;
8978;SDS011;4524;51.364;5.448;2022-09-17T11:32:31;3.97;;;0.80;;
8978;SDS011;4524;51.364;5.448;2022-09-17T11:35:21;3.57;;;0.73;;
8978;SDS011;4524;51.364;5.448;2022-09-17T11:37:53;3.53;;;0.80;;
8978;SDS011;4524;51.364;5.448;2022-09-17T11:40:31;3.10;;;1.00;;
8978;SDS011;4524;51.364;5.448;2022-09-17T11:43:07;2.67;;;0.70;;
8978;SDS011;4524;51.364;5.448;2022-09-17T11:45:44;3.37;;;0.80;;
8978;SDS011;4524;51.364;5.448;2022-09-17T11:48:21;5.07;;;1.00;;
8978;SDS011;4524;51.364;5.448;2022-09-17T11:50:56;5.70;;;1.13;;
8978;SDS011;4524;51.364;5.448;2022-09-17T11:53:29;4.63;;;0.83;;
8978;SDS011;4524;51.364;5.448;2022-09-17T11:56:02;3.00;;;0.90;;
8978;SDS011;4524;51.364;5.448;2022-09-17T11:58:38;2.50;;;1.00;;
8978;SDS011;4524;51.364;5.448;2022-09-17T12:01:10;4.20;;;0.93;;
8978;SDS011;4524;51.364;5.448;2022-09-17T12:03:47;4.70;;;0.90;;
8978;SDS011;4524;51.364;5.448;2022-09-17T12:06:20;2.07;;;0.80;;
8978;SDS011;4524;51.364;5.448;2022-09-17T12:09:11;4.47;;;1.03;;
8978;SDS011;4524;51.364;5.448;2022-09-17T12:11:46;2.97;;;1.07;;
8978;SDS011;4524;51.364;5.448;2022-09-17T12:14:20;7.10;;;1.30;;
8978;SDS011;4524;51.364;5.448;2022-09-17T12:16:51;7.73;;;1.37;;
8978;SDS011;4524;51.364;5.448;2022-09-17T12:19:24;7.03;;;1.30;;
8978;SDS011;4524;51.364;5.448;2022-09-17T12:21:58;3.20;;;1.17;;
8978;SDS011;4524;51.364;5.448;2022-09-17T12:24:30;5.17;;;1.13;;
8978;SDS011;4524;51.364;5.448;2022-09-17T12:27:02;5.47;;;1.00;;
8978;SDS011;4524;51.364;5.448;2022-09-17T12:29:39;4.13;;;1.37;;
8978;SDS011;4524;51.364;5.448;2022-09-17T12:32:22;4.70;;;1.20;;
8978;SDS011;4524;51.364;5.448;2022-09-17T12:35:02;3.97;;;0.97;;
8978;SDS011;4524;51.364;5.448;2022-09-17T12:37:45;5.87;;;1.30;;
8978;SDS011;4524;51.364;5.448;2022-09-17T12:40:25;6.17;;;1.53;;
8978;SDS011;4524;51.364;5.448;2022-09-17T12:43:15;2.50;;;0.90;;
8978;SDS011;4524;51.364;5.448;2022-09-17T12:46:01;3.17;;;1.20;;
8978;SDS011;4524;51.364;5.448;2022-09-17T12:48:42;4.03;;;1.13;;
8978;SDS011;4524;51.364;5.448;2022-09-17T12:51:27;4.73;;;1.40;;
8978;SDS011;4524;51.364;5.448;2022-09-17T12:54:14;4.43;;;1.30;;
8978;SDS011;4524;51.364;5.448;2022-09-17T12:56:51;4.70;;;1.20;;
8978;SDS011;4524;51.364;5.448;2022-09-17T12:59:29;3.63;;;1.20;;
8978;SDS011;4524;51.364;5.448;2022-09-17T13:02:01;6.80;;;1.30;;
8978;SDS011;4524;51.364;5.448;2022-09-17T13:04:44;4.47;;;1.50;;
8978;SDS011;4524;51.364;5.448;2022-09-17T13:07:34;7.83;;;1.50;;
8978;SDS011;4524;51.364;5.448;2022-09-17T13:10:31;6.83;;;1.73;;
8978;SDS011;4524;51.364;5.448;2022-09-17T13:13:10;5.37;;;1.60;;
8978;SDS011;4524;51.364;5.448;2022-09-17T13:15:53;8.03;;;1.63;;
8978;SDS011;4524;51.364;5.448;2022-09-17T13:18:26;8.87;;;2.20;;
8978;SDS011;4524;51.364;5.448;2022-09-17T13:21:02;9.10;;;1.83;;
8978;SDS011;4524;51.364;5.448;2022-09-17T13:23:36;5.03;;;1.63;;
8978;SDS011;4524;51.364;5.448;2022-09-17T13:26:06;9.00;;;1.70;;
8978;SDS011;4524;51.364;5.448;2022-09-17T13:28:36;6.17;;;1.60;;
8978;SDS011;4524;51.364;5.448;2022-09-17T13:31:19;6.40;;;1.87;;
8978;SDS011;4524;51.364;5.448;2022-09-17T13:33:49;8.80;;;1.80;;
8978;SDS011;4524;51.364;5.448;2022-09-17T13:36:37;6.77;;;1.80;;
8978;SDS011;4524;51.364;5.448;2022-09-17T13:39:10;6.47;;;1.70;;
8978;SDS011;4524;51.364;5.448;2022-09-17T13:42:10;7.63;;;1.77;;
8978;SDS011;4524;51.364;5.448;2022-09-17T13:44:43;6.53;;;1.50;;
8978;SDS011;4524;51.364;5.448;2022-09-17T13:47:19;8.23;;;1.70;;
8978;SDS011;4524;51.364;5.448;2022-09-17T13:49:52;9.50;;;1.63;;
8978;SDS011;4524;51.364;5.448;2022-09-17T13:52:34;8.50;;;1.70;;
8978;SDS011;4524;51.364;5.448;2022-09-17T13:55:05;8.53;;;1.70;;
8978;SDS011;4524;51.364;5.448;2022-09-17T13:57:43;8.87;;;1.70;;
8978;SDS011;4524;51.364;5.448;2022-09-17T14:09:32;6.43;;;1.60;;
8978;SDS011;4524;51.364;5.448;2022-09-17T14:15:32;6.13;;;1.20;;
8978;SDS011;4524;51.364;5.448;2022-09-17T14:21:06;8.53;;;2.23;;
8978;SDS011;4524;51.364;5.448;2022-09-17T14:23:41;5.57;;;1.77;;
8978;SDS011;4524;51.364;5.448;2022-09-17T14:26:11;5.23;;;1.77;;
8978;SDS011;4524;51.364;5.448;2022-09-17T14:28:46;4.90;;;1.40;;
8978;SDS011;4524;51.364;5.448;2022-09-17T14:31:23;6.37;;;1.43;;
8978;SDS011;4524;51.364;5.448;2022-09-17T14:33:57;5.20;;;1.63;;
8978;SDS011;4524;51.364;5.448;2022-09-17T14:36:30;4.03;;;1.30;;
8978;SDS011;4524;51.364;5.448;2022-09-17T14:39:01;5.03;;;1.23;;
8978;SDS011;4524;51.364;5.448;2022-09-17T14:41:37;5.30;;;2.23;;
8978;SDS011;4524;51.364;5.448;2022-09-17T14:44:07;7.63;;;1.40;;
8978;SDS011;4524;51.364;5.448;2022-09-17T14:46:41;3.53;;;1.57;;
8978;SDS011;4524;51.364;5.448;2022-09-17T14:49:16;6.67;;;1.70;;
8978;SDS011;4524;51.364;5.448;2022-09-17T14:51:49;8.37;;;1.90;;
8978;SDS011;4524;51.364;5.448;2022-09-17T14:54:19;8.13;;;1.53;;
8978;SDS011;4524;51.364;5.448;2022-09-17T14:56:52;5.47;;;1.40;;
8978;SDS011;4524;51.364;5.448;2022-09-17T14:59:35;4.43;;;1.37;;
8978;SDS011;4524;51.364;5.448;2022-09-17T15:02:19;6.93;;;1.70;;
8978;SDS011;4524;51.364;5.448;2022-09-17T15:04:54;6.57;;;1.73;;
8978;SDS011;4524;51.364;5.448;2022-09-17T15:07:24;6.77;;;1.40;;
8978;SDS011;4524;51.364;5.448;2022-09-17T15:10:04;6.13;;;1.60;;
8978;SDS011;4524;51.364;5.448;2022-09-17T15:12:33;7.07;;;1.60;;
8978;SDS011;4524;51.364;5.448;2022-09-17T15:15:02;8.23;;;1.77;;
8978;SDS011;4524;51.364;5.448;2022-09-17T15:17:30;8.83;;;1.70;;
8978;SDS011;4524;51.364;5.448;2022-09-17T15:19:59;6.97;;;1.90;;
8978;SDS011;4524;51.364;5.448;2022-09-17T15:22:33;7.77;;;1.80;;
8978;SDS011;4524;51.364;5.448;2022-09-17T15:25:05;7.07;;;1.70;;
8978;SDS011;4524;51.364;5.448;2022-09-17T15:27:36;7.73;;;2.07;;
8978;SDS011;4524;51.364;5.448;2022-09-17T15:30:09;6.53;;;2.20;;
8978;SDS011;4524;51.364;5.448;2022-09-17T15:32:39;7.77;;;1.93;;
8978;SDS011;4524;51.364;5.448;2022-09-17T15:35:16;6.70;;;1.90;;
8978;SDS011;4524;51.364;5.448;2022-09-17T15:37:55;7.90;;;1.80;;
8978;SDS011;4524;51.364;5.448;2022-09-17T15:40:44;8.27;;;2.10;;
8978;SDS011;4524;51.364;5.448;2022-09-17T15:43:15;6.87;;;1.50;;
8978;SDS011;4524;51.364;5.448;2022-09-17T15:45:47;7.23;;;1.83;;
8978;SDS011;4524;51.364;5.448;2022-09-17T15:48:20;10.83;;;1.90;;
8978;SDS011;4524;51.364;5.448;2022-09-17T15:51:01;10.00;;;1.70;;
8978;SDS011;4524;51.364;5.448;2022-09-17T15:53:33;7.73;;;1.97;;
8978;SDS011;4524;51.364;5.448;2022-09-17T15:56:03;6.63;;;1.70;;
8978;SDS011;4524;51.364;5.448;2022-09-17T15:58:35;11.17;;;1.90;;
8978;SDS011;4524;51.364;5.448;2022-09-17T16:01:39;6.47;;;1.90;;
8978;SDS011;4524;51.364;5.448;2022-09-17T16:04:19;11.37;;;1.87;;
8978;SDS011;4524;51.364;5.448;2022-09-17T16:06:55;10.60;;;2.00;;
8978;SDS011;4524;51.364;5.448;2022-09-17T16:09:39;6.57;;;1.97;;
8978;SDS011;4524;51.364;5.448;2022-09-17T16:12:16;9.23;;;2.07;;
8978;SDS011;4524;51.364;5.448;2022-09-17T16:14:48;10.50;;;2.03;;
8978;SDS011;4524;51.364;5.448;2022-09-17T16:17:25;8.37;;;1.83;;
8978;SDS011;4524;51.364;5.448;2022-09-17T16:20:06;8.23;;;1.67;;
8978;SDS011;4524;51.364;5.448;2022-09-17T16:22:36;8.77;;;2.07;;